sensor_id;sensor_type;location;lat;lon;timestamp;temperature;humidity
12315;DHT22;23886;46.614;14.276;2022-10-18T00:00:11;9.10;99.90
12315;DHT22;23886;46.614;14.276;2022-10-18T00:02:38;9.20;99.90
12315;DHT22;23886;46.614;14.276;2022-10-18T00:05:07;9.30;99.90
12315;DHT22;23886;46.614;14.276;2022-10-18T00:07:34;9.40;99.90
12315;DHT22;23886;46.614;14.276;2022-10-18T00:10:02;9.50;99.90
12315;DHT22;23886;46.614;14.276;2022-10-18T00:12:32;9.60;99.90
12315;DHT22;23886;46.614;14.276;2022-10-18T00:14:59;9.70;99.90
12315;DHT22;23886;46.614;14.276;2022-10-18T00:17:26;9.70;99.90
12315;DHT22;23886;46.614;14.276;2022-10-18T00:19:53;9.80;99.90
12315;DHT22;23886;46.614;14.276;2022-10-18T00:22:21;9.80;99.90
12315;DHT22;23886;46.614;14.276;2022-10-18T00:24:48;9.70;99.90
12315;DHT22;23886;46.614;14.276;2022-10-18T00:27:15;9.80;99.90
12315;DHT22;23886;46.614;14.276;2022-10-18T00:29:42;9.80;99.90
12315;DHT22;23886;46.614;14.276;2022-10-18T00:32:09;9.90;99.90
12315;DHT22;23886;46.614;14.276;2022-10-18T00:34:38;9.90;99.90
12315;DHT22;23886;46.614;14.276;2022-10-18T00:37:05;10.00;99.90
12315;DHT22;23886;46.614;14.276;2022-10-18T00:39:33;10.00;99.90
12315;DHT22;23886;46.614;14.276;2022-10-18T00:42:00;10.00;99.90
12315;DHT22;23886;46.614;14.276;2022-10-18T00:45:00;10.10;99.90
12315;DHT22;23886;46.614;14.276;2022-10-18T00:47:27;10.10;99.90
12315;DHT22;23886;46.614;14.276;2022-10-18T00:49:56;10.10;99.90
12315;DHT22;23886;46.614;14.276;2022-10-18T00:52:30;10.00;99.90
12315;DHT22;23886;46.614;14.276;2022-10-18T00:55:00;10.10;99.90
12315;DHT22;23886;46.614;14.276;2022-10-18T00:57:28;10.00;99.90
12315;DHT22;23886;46.614;14.276;2022-10-18T00:59:56;10.00;99.90
12315;DHT22;23886;46.614;14.276;2022-10-18T01:02:24;9.90;99.90
12315;DHT22;23886;46.614;14.276;2022-10-18T01:04:51;9.90;99.90
12315;DHT22;23886;46.614;14.276;2022-10-18T01:10:25;10.10;99.90
12315;DHT22;23886;46.614;14.276;2022-10-18T01:13:04;10.20;99.90
12315;DHT22;23886;46.614;14.276;2022-10-18T01:15:36;10.10;99.90
12315;DHT22;23886;46.614;14.276;2022-10-18T01:18:15;10.20;99.90
12315;DHT22;23886;46.614;14.276;2022-10-18T01:23:56;10.10;99.90
12315;DHT22;23886;46.614;14.276;2022-10-18T01:26:39;10.00;99.90
12315;DHT22;23886;46.614;14.276;2022-10-18T01:29:20;9.90;99.90
12315;DHT22;23886;46.614;14.276;2022-10-18T01:31:55;9.80;99.90
12315;DHT22;23886;46.614;14.276;2022-10-18T01:34:23;9.80;99.90
12315;DHT22;23886;46.614;14.276;2022-10-18T01:36:54;9.80;99.90
12315;DHT22;23886;46.614;14.276;2022-10-18T01:39:24;9.80;99.90
12315;DHT22;23886;46.614;14.276;2022-10-18T01:41:53;9.80;99.90
12315;DHT22;23886;46.614;14.276;2022-10-18T01:44:24;9.90;99.90
12315;DHT22;23886;46.614;14.276;2022-10-18T01:46:55;9.80;99.90
12315;DHT22;23886;46.614;14.276;2022-10-18T01:49:23;9.90;99.90
12315;DHT22;23886;46.614;14.276;2022-10-18T01:51:51;10.00;99.90
12315;DHT22;23886;46.614;14.276;2022-10-18T01:54:23;10.00;99.90
12315;DHT22;23886;46.614;14.276;2022-10-18T01:56:56;10.20;99.90
12315;DHT22;23886;46.614;14.276;2022-10-18T01:59:35;10.20;99.90
12315;DHT22;23886;46.614;14.276;2022-10-18T02:02:14;10.10;99.90
12315;DHT22;23886;46.614;14.276;2022-10-18T02:04:48;10.10;99.90
12315;DHT22;23886;46.614;14.276;2022-10-18T02:07:25;10.10;99.90
12315;DHT22;23886;46.614;14.276;2022-10-18T02:09:58;10.20;99.90
12315;DHT22;23886;46.614;14.276;2022-10-18T02:12:28;10.20;99.90
12315;DHT22;23886;46.614;14.276;2022-10-18T02:14:59;10.10;99.90
12315;DHT22;23886;46.614;14.276;2022-10-18T02:17:29;10.10;99.90
12315;DHT22;23886;46.614;14.276;2022-10-18T02:19:59;10.10;99.90
12315;DHT22;23886;46.614;14.276;2022-10-18T02:22:29;10.20;99.90
12315;DHT22;23886;46.614;14.276;2022-10-18T02:24:58;10.20;99.90
12315;DHT22;23886;46.614;14.276;2022-10-18T02:27:28;10.30;99.90
12315;DHT22;23886;46.614;14.276;2022-10-18T02:29:55;10.10;99.90
12315;DHT22;23886;46.614;14.276;2022-10-18T02:32:27;10.00;99.90
12315;DHT22;23886;46.614;14.276;2022-10-18T02:35:00;10.00;99.90
12315;DHT22;23886;46.614;14.276;2022-10-18T02:37:32;9.90;99.90
12315;DHT22;23886;46.614;14.276;2022-10-18T02:40:01;9.90;99.90
12315;DHT22;23886;46.614;14.276;2022-10-18T02:42:33;9.90;99.90
12315;DHT22;23886;46.614;14.276;2022-10-18T02:45:01;9.90;99.90
12315;DHT22;23886;46.614;14.276;2022-10-18T02:47:29;10.00;99.90
12315;DHT22;23886;46.614;14.276;2022-10-18T02:49:57;10.10;99.90
12315;DHT22;23886;46.614;14.276;2022-10-18T02:52:24;10.20;99.90
12315;DHT22;23886;46.614;14.276;2022-10-18T02:54:51;10.20;99.90
12315;DHT22;23886;46.614;14.276;2022-10-18T02:57:18;10.10;99.90
12315;DHT22;23886;46.614;14.276;2022-10-18T02:59:45;10.20;99.90
12315;DHT22;23886;46.614;14.276;2022-10-18T03:02:12;10.10;99.90
12315;DHT22;23886;46.614;14.276;2022-10-18T03:04:39;10.10;99.90
12315;DHT22;23886;46.614;14.276;2022-10-18T03:07:08;10.10;99.90
12315;DHT22;23886;46.614;14.276;2022-10-18T03:09:35;10.10;99.90
12315;DHT22;23886;46.614;14.276;2022-10-18T03:12:02;10.10;99.90
12315;DHT22;23886;46.614;14.276;2022-10-18T03:14:30;10.20;99.90
12315;DHT22;23886;46.614;14.276;2022-10-18T03:16:57;10.20;99.90
12315;DHT22;23886;46.614;14.276;2022-10-18T03:19:24;10.10;99.90
12315;DHT22;23886;46.614;14.276;2022-10-18T03:21:51;10.10;99.90
12315;DHT22;23886;46.614;14.276;2022-10-18T03:24:19;10.20;99.90
12315;DHT22;23886;46.614;14.276;2022-10-18T03:26:46;10.30;99.90
12315;DHT22;23886;46.614;14.276;2022-10-18T03:29:13;10.40;99.90
12315;DHT22;23886;46.614;14.276;2022-10-18T03:31:41;10.30;99.90
12315;DHT22;23886;46.614;14.276;2022-10-18T03:34:08;10.30;99.90
12315;DHT22;23886;46.614;14.276;2022-10-18T03:36:34;10.40;99.90
12315;DHT22;23886;46.614;14.276;2022-10-18T03:39:03;10.40;99.90
12315;DHT22;23886;46.614;14.276;2022-10-18T03:41:31;10.50;99.90
12315;DHT22;23886;46.614;14.276;2022-10-18T03:43:58;10.50;99.90
12315;DHT22;23886;46.614;14.276;2022-10-18T03:46:25;10.60;99.90
12315;DHT22;23886;46.614;14.276;2022-10-18T03:48:52;10.60;99.90
12315;DHT22;23886;46.614;14.276;2022-10-18T03:51:19;10.70;99.90
12315;DHT22;23886;46.614;14.276;2022-10-18T03:53:46;10.60;99.90
12315;DHT22;23886;46.614;14.276;2022-10-18T03:56:13;10.50;99.90
12315;DHT22;23886;46.614;14.276;2022-10-18T03:58:41;10.60;99.90
12315;DHT22;23886;46.614;14.276;2022-10-18T04:01:08;10.70;99.90
12315;DHT22;23886;46.614;14.276;2022-10-18T04:03:35;10.70;99.90
12315;DHT22;23886;46.614;14.276;2022-10-18T04:06:03;10.80;99.90
12315;DHT22;23886;46.614;14.276;2022-10-18T04:08:30;10.80;99.90
12315;DHT22;23886;46.614;14.276;2022-10-18T04:10:57;10.70;99.90
12315;DHT22;23886;46.614;14.276;2022-10-18T04:13:24;10.70;99.90
12315;DHT22;23886;46.614;14.276;2022-10-18T04:15:52;10.80;99.90
12315;DHT22;23886;46.614;14.276;2022-10-18T04:18:19;10.80;99.90
12315;DHT22;23886;46.614;14.276;2022-10-18T04:20:46;10.70;99.90
12315;DHT22;23886;46.614;14.276;2022-10-18T04:23:13;10.60;99.90
12315;DHT22;23886;46.614;14.276;2022-10-18T04:25:41;10.60;99.90
12315;DHT22;23886;46.614;14.276;2022-10-18T04:28:08;10.60;99.90
12315;DHT22;23886;46.614;14.276;2022-10-18T04:30:35;10.60;99.90
12315;DHT22;23886;46.614;14.276;2022-10-18T04:33:03;10.50;99.90
12315;DHT22;23886;46.614;14.276;2022-10-18T04:35:30;10.40;99.90
12315;DHT22;23886;46.614;14.276;2022-10-18T04:37:57;10.40;99.90
12315;DHT22;23886;46.614;14.276;2022-10-18T04:40:24;10.40;99.90
12315;DHT22;23886;46.614;14.276;2022-10-18T04:42:51;10.40;99.90
12315;DHT22;23886;46.614;14.276;2022-10-18T04:45:18;10.40;99.90
12315;DHT22;23886;46.614;14.276;2022-10-18T04:47:45;10.40;99.90
12315;DHT22;23886;46.614;14.276;2022-10-18T04:50:14;10.30;99.90
12315;DHT22;23886;46.614;14.276;2022-10-18T04:52:41;10.20;99.90
12315;DHT22;23886;46.614;14.276;2022-10-18T04:55:08;10.10;99.90
12315;DHT22;23886;46.614;14.276;2022-10-18T04:57:35;10.00;99.90
12315;DHT22;23886;46.614;14.276;2022-10-18T05:00:03;10.10;99.90
12315;DHT22;23886;46.614;14.276;2022-10-18T05:02:30;10.20;99.90
12315;DHT22;23886;46.614;14.276;2022-10-18T05:04:57;10.20;99.90
12315;DHT22;23886;46.614;14.276;2022-10-18T05:07:25;10.20;99.90
12315;DHT22;23886;46.614;14.276;2022-10-18T05:09:52;10.30;99.90
12315;DHT22;23886;46.614;14.276;2022-10-18T05:12:19;10.20;99.90
12315;DHT22;23886;46.614;14.276;2022-10-18T05:14:46;10.20;99.90
12315;DHT22;23886;46.614;14.276;2022-10-18T05:17:14;10.20;99.90
12315;DHT22;23886;46.614;14.276;2022-10-18T05:19:41;10.20;99.90
12315;DHT22;23886;46.614;14.276;2022-10-18T05:22:08;10.20;99.90
12315;DHT22;23886;46.614;14.276;2022-10-18T05:24:37;10.30;99.90
12315;DHT22;23886;46.614;14.276;2022-10-18T05:27:04;10.20;99.90
12315;DHT22;23886;46.614;14.276;2022-10-18T05:29:41;10.10;99.90
12315;DHT22;23886;46.614;14.276;2022-10-18T05:32:15;10.10;99.90
12315;DHT22;23886;46.614;14.276;2022-10-18T05:34:44;10.10;99.90
12315;DHT22;23886;46.614;14.276;2022-10-18T05:37:29;10.10;99.90
12315;DHT22;23886;46.614;14.276;2022-10-18T05:39:58;10.00;99.90
12315;DHT22;23886;46.614;14.276;2022-10-18T05:42:31;9.90;99.90
12315;DHT22;23886;46.614;14.276;2022-10-18T05:44:58;10.10;99.90
12315;DHT22;23886;46.614;14.276;2022-10-18T05:47:32;10.20;99.90
12315;DHT22;23886;46.614;14.276;2022-10-18T05:50:01;10.20;99.90
12315;DHT22;23886;46.614;14.276;2022-10-18T05:52:28;10.20;99.90
12315;DHT22;23886;46.614;14.276;2022-10-18T05:55:03;10.20;99.90
12315;DHT22;23886;46.614;14.276;2022-10-18T05:57:30;10.30;99.90
12315;DHT22;23886;46.614;14.276;2022-10-18T05:59:57;10.30;99.90
12315;DHT22;23886;46.614;14.276;2022-10-18T06:02:25;10.30;99.90
12315;DHT22;23886;46.614;14.276;2022-10-18T06:05:01;10.20;99.90
12315;DHT22;23886;46.614;14.276;2022-10-18T06:07:28;10.30;99.90
12315;DHT22;23886;46.614;14.276;2022-10-18T06:09:55;10.30;99.90
12315;DHT22;23886;46.614;14.276;2022-10-18T06:12:23;10.30;99.90
12315;DHT22;23886;46.614;14.276;2022-10-18T06:14:51;10.40;99.90
12315;DHT22;23886;46.614;14.276;2022-10-18T06:17:18;10.40;99.90
12315;DHT22;23886;46.614;14.276;2022-10-18T06:19:55;10.30;99.90
12315;DHT22;23886;46.614;14.276;2022-10-18T06:22:22;10.40;99.90
12315;DHT22;23886;46.614;14.276;2022-10-18T06:24:49;10.40;99.90
12315;DHT22;23886;46.614;14.276;2022-10-18T06:27:16;10.60;99.90
12315;DHT22;23886;46.614;14.276;2022-10-18T06:29:44;10.60;99.90
12315;DHT22;23886;46.614;14.276;2022-10-18T06:32:11;10.50;99.90
12315;DHT22;23886;46.614;14.276;2022-10-18T06:34:44;10.40;99.90
12315;DHT22;23886;46.614;14.276;2022-10-18T06:37:14;10.50;99.90
12315;DHT22;23886;46.614;14.276;2022-10-18T06:39:44;10.60;99.90
12315;DHT22;23886;46.614;14.276;2022-10-18T06:42:11;10.60;99.90
12315;DHT22;23886;46.614;14.276;2022-10-18T06:44:49;10.60;99.90
12315;DHT22;23886;46.614;14.276;2022-10-18T06:47:17;10.60;99.90
12315;DHT22;23886;46.614;14.276;2022-10-18T06:49:44;10.60;99.90
12315;DHT22;23886;46.614;14.276;2022-10-18T06:52:11;10.90;99.90
12315;DHT22;23886;46.614;14.276;2022-10-18T06:54:46;11.00;99.90
12315;DHT22;23886;46.614;14.276;2022-10-18T06:57:13;11.20;99.90
12315;DHT22;23886;46.614;14.276;2022-10-18T06:59:40;11.30;99.90
12315;DHT22;23886;46.614;14.276;2022-10-18T07:02:12;11.30;99.90
12315;DHT22;23886;46.614;14.276;2022-10-18T07:04:43;11.40;99.90
12315;DHT22;23886;46.614;14.276;2022-10-18T07:07:10;11.40;99.90
12315;DHT22;23886;46.614;14.276;2022-10-18T07:09:37;11.50;99.90
12315;DHT22;23886;46.614;14.276;2022-10-18T07:12:04;11.40;99.90
12315;DHT22;23886;46.614;14.276;2022-10-18T07:14:31;11.40;99.90
12315;DHT22;23886;46.614;14.276;2022-10-18T07:16:59;11.40;99.90
12315;DHT22;23886;46.614;14.276;2022-10-18T07:19:27;11.50;99.90
12315;DHT22;23886;46.614;14.276;2022-10-18T07:21:54;11.80;99.90
12315;DHT22;23886;46.614;14.276;2022-10-18T07:24:21;11.90;99.90
12315;DHT22;23886;46.614;14.276;2022-10-18T07:26:48;12.00;99.90
12315;DHT22;23886;46.614;14.276;2022-10-18T07:29:15;12.20;99.90
12315;DHT22;23886;46.614;14.276;2022-10-18T07:31:42;12.20;99.90
12315;DHT22;23886;46.614;14.276;2022-10-18T07:34:11;12.20;99.90
12315;DHT22;23886;46.614;14.276;2022-10-18T07:36:40;12.10;99.90
12315;DHT22;23886;46.614;14.276;2022-10-18T07:39:07;11.90;99.90
12315;DHT22;23886;46.614;14.276;2022-10-18T07:41:34;11.60;99.90
12315;DHT22;23886;46.614;14.276;2022-10-18T07:44:02;11.60;99.90
12315;DHT22;23886;46.614;14.276;2022-10-18T07:46:29;12.00;99.90
12315;DHT22;23886;46.614;14.276;2022-10-18T07:48:57;11.90;99.90
12315;DHT22;23886;46.614;14.276;2022-10-18T07:51:24;11.80;99.90
12315;DHT22;23886;46.614;14.276;2022-10-18T07:53:53;11.90;99.90
12315;DHT22;23886;46.614;14.276;2022-10-18T07:56:21;12.10;99.90
12315;DHT22;23886;46.614;14.276;2022-10-18T07:58:49;12.20;99.90
12315;DHT22;23886;46.614;14.276;2022-10-18T08:01:18;12.10;99.90
12315;DHT22;23886;46.614;14.276;2022-10-18T08:03:46;12.20;99.90
12315;DHT22;23886;46.614;14.276;2022-10-18T08:06:14;12.40;99.90
12315;DHT22;23886;46.614;14.276;2022-10-18T08:08:43;12.50;99.90
12315;DHT22;23886;46.614;14.276;2022-10-18T08:11:14;12.50;99.90
12315;DHT22;23886;46.614;14.276;2022-10-18T08:13:42;12.80;99.90
12315;DHT22;23886;46.614;14.276;2022-10-18T08:16:10;12.90;99.90
12315;DHT22;23886;46.614;14.276;2022-10-18T08:18:38;12.90;99.90
12315;DHT22;23886;46.614;14.276;2022-10-18T08:21:07;12.80;99.90
12315;DHT22;23886;46.614;14.276;2022-10-18T08:23:35;13.00;99.90
12315;DHT22;23886;46.614;14.276;2022-10-18T08:26:03;13.10;99.90
12315;DHT22;23886;46.614;14.276;2022-10-18T08:28:32;13.00;99.90
12315;DHT22;23886;46.614;14.276;2022-10-18T08:31:01;12.70;99.90
12315;DHT22;23886;46.614;14.276;2022-10-18T08:33:29;12.60;99.90
12315;DHT22;23886;46.614;14.276;2022-10-18T08:35:57;12.50;99.90
12315;DHT22;23886;46.614;14.276;2022-10-18T08:38:24;12.30;99.90
12315;DHT22;23886;46.614;14.276;2022-10-18T08:40:51;12.30;99.90
12315;DHT22;23886;46.614;14.276;2022-10-18T08:43:25;12.30;99.90
12315;DHT22;23886;46.614;14.276;2022-10-18T08:45:56;12.20;99.90
12315;DHT22;23886;46.614;14.276;2022-10-18T08:48:31;12.00;99.90
12315;DHT22;23886;46.614;14.276;2022-10-18T08:51:00;12.10;99.90
12315;DHT22;23886;46.614;14.276;2022-10-18T08:53:34;12.20;99.90
12315;DHT22;23886;46.614;14.276;2022-10-18T08:56:05;12.40;99.90
12315;DHT22;23886;46.614;14.276;2022-10-18T08:58:40;12.60;99.90
12315;DHT22;23886;46.614;14.276;2022-10-18T09:01:16;12.80;99.90
12315;DHT22;23886;46.614;14.276;2022-10-18T09:04:08;12.90;99.90
12315;DHT22;23886;46.614;14.276;2022-10-18T09:06:46;13.00;99.90
12315;DHT22;23886;46.614;14.276;2022-10-18T09:09:25;13.10;99.90
12315;DHT22;23886;46.614;14.276;2022-10-18T09:12:02;13.20;99.90
12315;DHT22;23886;46.614;14.276;2022-10-18T09:14:47;13.30;99.90
12315;DHT22;23886;46.614;14.276;2022-10-18T09:17:25;13.40;99.90
12315;DHT22;23886;46.614;14.276;2022-10-18T09:20:12;13.40;99.90
12315;DHT22;23886;46.614;14.276;2022-10-18T09:22:51;13.50;99.90
12315;DHT22;23886;46.614;14.276;2022-10-18T09:25:20;13.60;99.90
12315;DHT22;23886;46.614;14.276;2022-10-18T09:27:51;13.60;99.90
12315;DHT22;23886;46.614;14.276;2022-10-18T09:30:28;13.70;99.90
12315;DHT22;23886;46.614;14.276;2022-10-18T09:33:05;13.90;99.90
12315;DHT22;23886;46.614;14.276;2022-10-18T09:35:39;14.00;99.90
12315;DHT22;23886;46.614;14.276;2022-10-18T09:38:11;14.00;99.90
12315;DHT22;23886;46.614;14.276;2022-10-18T09:40:49;14.10;99.90
12315;DHT22;23886;46.614;14.276;2022-10-18T09:43:21;14.10;99.90
12315;DHT22;23886;46.614;14.276;2022-10-18T09:45:50;14.30;99.90
12315;DHT22;23886;46.614;14.276;2022-10-18T09:48:23;14.30;99.90
12315;DHT22;23886;46.614;14.276;2022-10-18T09:50:56;14.40;99.90
12315;DHT22;23886;46.614;14.276;2022-10-18T09:53:32;14.60;99.90
12315;DHT22;23886;46.614;14.276;2022-10-18T09:56:04;14.50;99.90
12315;DHT22;23886;46.614;14.276;2022-10-18T09:58:43;14.50;99.90
12315;DHT22;23886;46.614;14.276;2022-10-18T10:01:13;14.60;99.90
12315;DHT22;23886;46.614;14.276;2022-10-18T10:03:42;14.70;99.90
12315;DHT22;23886;46.614;14.276;2022-10-18T10:06:22;14.70;99.90
12315;DHT22;23886;46.614;14.276;2022-10-18T10:08:54;14.90;99.90
12315;DHT22;23886;46.614;14.276;2022-10-18T10:11:28;14.90;99.90
12315;DHT22;23886;46.614;14.276;2022-10-18T10:13:57;15.00;99.90
12315;DHT22;23886;46.614;14.276;2022-10-18T10:16:32;15.00;99.90
12315;DHT22;23886;46.614;14.276;2022-10-18T10:19:01;15.10;99.90
12315;DHT22;23886;46.614;14.276;2022-10-18T10:21:28;15.30;99.90
12315;DHT22;23886;46.614;14.276;2022-10-18T10:23:57;15.50;99.90
12315;DHT22;23886;46.614;14.276;2022-10-18T10:26:28;15.70;99.90
12315;DHT22;23886;46.614;14.276;2022-10-18T10:28:56;15.80;99.90
12315;DHT22;23886;46.614;14.276;2022-10-18T10:31:27;15.60;99.90
12315;DHT22;23886;46.614;14.276;2022-10-18T10:33:59;15.70;99.90
12315;DHT22;23886;46.614;14.276;2022-10-18T10:36:28;15.70;99.90
12315;DHT22;23886;46.614;14.276;2022-10-18T10:39:06;15.80;99.90
12315;DHT22;23886;46.614;14.276;2022-10-18T10:41:37;15.90;99.90
12315;DHT22;23886;46.614;14.276;2022-10-18T10:44:15;16.00;99.90
12315;DHT22;23886;46.614;14.276;2022-10-18T10:46:42;16.10;99.90
12315;DHT22;23886;46.614;14.276;2022-10-18T10:49:16;16.00;99.90
12315;DHT22;23886;46.614;14.276;2022-10-18T10:51:52;16.00;99.90
12315;DHT22;23886;46.614;14.276;2022-10-18T10:54:21;16.00;99.90
12315;DHT22;23886;46.614;14.276;2022-10-18T10:56:53;16.00;99.90
12315;DHT22;23886;46.614;14.276;2022-10-18T10:59:21;16.10;99.90
12315;DHT22;23886;46.614;14.276;2022-10-18T11:02:15;16.20;99.90
12315;DHT22;23886;46.614;14.276;2022-10-18T11:04:46;16.20;99.90
12315;DHT22;23886;46.614;14.276;2022-10-18T11:07:20;16.40;99.90
12315;DHT22;23886;46.614;14.276;2022-10-18T11:09:55;16.60;99.90
12315;DHT22;23886;46.614;14.276;2022-10-18T11:12:28;16.50;99.90
12315;DHT22;23886;46.614;14.276;2022-10-18T11:15:17;16.70;99.90
12315;DHT22;23886;46.614;14.276;2022-10-18T11:17:50;16.80;99.90
12315;DHT22;23886;46.614;14.276;2022-10-18T11:20:25;16.90;99.90
12315;DHT22;23886;46.614;14.276;2022-10-18T11:22:59;17.00;99.90
12315;DHT22;23886;46.614;14.276;2022-10-18T11:25:48;17.00;99.90
12315;DHT22;23886;46.614;14.276;2022-10-18T11:28:27;17.10;99.90
12315;DHT22;23886;46.614;14.276;2022-10-18T11:31:11;17.10;99.90
12315;DHT22;23886;46.614;14.276;2022-10-18T11:33:51;17.30;99.90
12315;DHT22;23886;46.614;14.276;2022-10-18T11:36:25;17.50;99.90
12315;DHT22;23886;46.614;14.276;2022-10-18T11:38:59;17.70;99.90
12315;DHT22;23886;46.614;14.276;2022-10-18T11:41:30;17.60;99.90
12315;DHT22;23886;46.614;14.276;2022-10-18T11:44:01;17.70;99.90
12315;DHT22;23886;46.614;14.276;2022-10-18T11:46:47;17.70;99.90
12315;DHT22;23886;46.614;14.276;2022-10-18T11:49:30;17.90;99.90
12315;DHT22;23886;46.614;14.276;2022-10-18T11:52:07;17.90;99.90
12315;DHT22;23886;46.614;14.276;2022-10-18T11:55:01;18.10;99.90
12315;DHT22;23886;46.614;14.276;2022-10-18T11:57:44;18.10;99.90
12315;DHT22;23886;46.614;14.276;2022-10-18T12:00:26;18.10;99.90
12315;DHT22;23886;46.614;14.276;2022-10-18T12:03:18;18.20;99.90
12315;DHT22;23886;46.614;14.276;2022-10-18T12:05:49;18.40;99.90
12315;DHT22;23886;46.614;14.276;2022-10-18T12:08:20;18.40;99.90
12315;DHT22;23886;46.614;14.276;2022-10-18T12:10:52;18.50;99.90
12315;DHT22;23886;46.614;14.276;2022-10-18T12:13:26;18.60;99.90
12315;DHT22;23886;46.614;14.276;2022-10-18T12:15:55;18.70;99.90
12315;DHT22;23886;46.614;14.276;2022-10-18T12:18:23;18.80;99.90
12315;DHT22;23886;46.614;14.276;2022-10-18T12:20:53;19.00;99.90
12315;DHT22;23886;46.614;14.276;2022-10-18T12:23:28;19.00;99.90
12315;DHT22;23886;46.614;14.276;2022-10-18T12:26:00;19.00;99.90
12315;DHT22;23886;46.614;14.276;2022-10-18T12:28:36;19.10;99.90
12315;DHT22;23886;46.614;14.276;2022-10-18T12:31:11;18.90;99.90
12315;DHT22;23886;46.614;14.276;2022-10-18T12:33:43;18.90;99.90
12315;DHT22;23886;46.614;14.276;2022-10-18T12:36:24;19.10;99.90
12315;DHT22;23886;46.614;14.276;2022-10-18T12:38:58;19.20;99.90
12315;DHT22;23886;46.614;14.276;2022-10-18T12:41:28;19.40;99.90
12315;DHT22;23886;46.614;14.276;2022-10-18T12:43:59;19.60;99.90
12315;DHT22;23886;46.614;14.276;2022-10-18T12:46:42;19.70;99.90
12315;DHT22;23886;46.614;14.276;2022-10-18T12:49:11;20.00;99.90
12315;DHT22;23886;46.614;14.276;2022-10-18T12:51:49;20.20;99.90
12315;DHT22;23886;46.614;14.276;2022-10-18T12:54:19;20.50;99.90
12315;DHT22;23886;46.614;14.276;2022-10-18T12:56:49;20.70;99.90
12315;DHT22;23886;46.614;14.276;2022-10-18T12:59:49;20.90;99.90
12315;DHT22;23886;46.614;14.276;2022-10-18T13:02:30;21.10;99.90
12315;DHT22;23886;46.614;14.276;2022-10-18T13:04:58;21.10;99.90
12315;DHT22;23886;46.614;14.276;2022-10-18T13:07:37;20.60;99.90
12315;DHT22;23886;46.614;14.276;2022-10-18T13:10:37;20.60;99.90
12315;DHT22;23886;46.614;14.276;2022-10-18T13:18:51;21.00;99.90
12315;DHT22;23886;46.614;14.276;2022-10-18T13:21:25;21.30;99.90
12315;DHT22;23886;46.614;14.276;2022-10-18T13:24:23;21.70;99.90
12315;DHT22;23886;46.614;14.276;2022-10-18T13:27:12;22.00;99.90
12315;DHT22;23886;46.614;14.276;2022-10-18T13:33:23;23.20;99.90
12315;DHT22;23886;46.614;14.276;2022-10-18T13:35:54;23.40;99.90
12315;DHT22;23886;46.614;14.276;2022-10-18T13:38:38;23.40;99.60
12315;DHT22;23886;46.614;14.276;2022-10-18T13:41:08;23.80;98.90
12315;DHT22;23886;46.614;14.276;2022-10-18T13:43:56;24.50;98.40
12315;DHT22;23886;46.614;14.276;2022-10-18T13:56:19;25.30;96.20
12315;DHT22;23886;46.614;14.276;2022-10-18T13:59:02;26.10;94.90
12315;DHT22;23886;46.614;14.276;2022-10-18T14:01:38;25.70;94.20
12315;DHT22;23886;46.614;14.276;2022-10-18T14:04:54;25.90;94.90
12315;DHT22;23886;46.614;14.276;2022-10-18T14:07:26;26.20;93.90
12315;DHT22;23886;46.614;14.276;2022-10-18T14:09:56;26.60;93.60
12315;DHT22;23886;46.614;14.276;2022-10-18T14:12:31;26.90;92.70
12315;DHT22;23886;46.614;14.276;2022-10-18T14:15:06;26.40;92.80
12315;DHT22;23886;46.614;14.276;2022-10-18T14:17:38;27.10;92.50
12315;DHT22;23886;46.614;14.276;2022-10-18T14:20:16;26.40;92.80
12315;DHT22;23886;46.614;14.276;2022-10-18T14:22:47;26.10;93.00
12315;DHT22;23886;46.614;14.276;2022-10-18T14:25:22;26.80;92.90
12315;DHT22;23886;46.614;14.276;2022-10-18T14:28:03;26.60;92.50
12315;DHT22;23886;46.614;14.276;2022-10-18T14:30:30;26.90;92.20
12315;DHT22;23886;46.614;14.276;2022-10-18T14:32:57;25.90;93.00
12315;DHT22;23886;46.614;14.276;2022-10-18T14:35:26;26.00;93.00
12315;DHT22;23886;46.614;14.276;2022-10-18T14:37:54;26.30;93.60
12315;DHT22;23886;46.614;14.276;2022-10-18T14:40:29;26.90;92.20
12315;DHT22;23886;46.614;14.276;2022-10-18T14:43:01;26.30;92.80
12315;DHT22;23886;46.614;14.276;2022-10-18T14:45:28;25.70;93.30
12315;DHT22;23886;46.614;14.276;2022-10-18T14:48:05;26.20;93.90
12315;DHT22;23886;46.614;14.276;2022-10-18T14:50:32;26.30;93.40
12315;DHT22;23886;46.614;14.276;2022-10-18T14:53:04;25.00;94.40
12315;DHT22;23886;46.614;14.276;2022-10-18T14:55:33;24.30;95.40
12315;DHT22;23886;46.614;14.276;2022-10-18T14:58:01;23.70;96.20
12315;DHT22;23886;46.614;14.276;2022-10-18T15:00:33;23.50;97.10
12315;DHT22;23886;46.614;14.276;2022-10-18T15:03:01;22.80;98.10
12315;DHT22;23886;46.614;14.276;2022-10-18T15:05:29;22.40;98.40
12315;DHT22;23886;46.614;14.276;2022-10-18T15:07:57;22.20;98.80
12315;DHT22;23886;46.614;14.276;2022-10-18T15:10:27;21.90;99.30
12315;DHT22;23886;46.614;14.276;2022-10-18T15:12:57;21.80;99.90
12315;DHT22;23886;46.614;14.276;2022-10-18T15:15:29;21.60;99.90
12315;DHT22;23886;46.614;14.276;2022-10-18T15:17:57;21.20;99.90
12315;DHT22;23886;46.614;14.276;2022-10-18T15:20:26;21.00;99.90
12315;DHT22;23886;46.614;14.276;2022-10-18T15:23:20;20.50;99.90
12315;DHT22;23886;46.614;14.276;2022-10-18T15:25:48;20.30;99.90
12315;DHT22;23886;46.614;14.276;2022-10-18T15:28:26;20.10;99.90
12315;DHT22;23886;46.614;14.276;2022-10-18T15:30:53;19.90;99.90
12315;DHT22;23886;46.614;14.276;2022-10-18T15:33:24;19.80;99.90
12315;DHT22;23886;46.614;14.276;2022-10-18T15:35:52;19.50;99.90
12315;DHT22;23886;46.614;14.276;2022-10-18T15:38:24;19.20;99.90
12315;DHT22;23886;46.614;14.276;2022-10-18T15:40:53;18.90;99.90
12315;DHT22;23886;46.614;14.276;2022-10-18T15:43:34;19.00;99.90
12315;DHT22;23886;46.614;14.276;2022-10-18T15:46:04;18.50;99.90
12315;DHT22;23886;46.614;14.276;2022-10-18T15:48:35;18.00;99.90
12315;DHT22;23886;46.614;14.276;2022-10-18T15:51:03;17.70;99.90
12315;DHT22;23886;46.614;14.276;2022-10-18T15:53:42;17.40;99.90
12315;DHT22;23886;46.614;14.276;2022-10-18T15:56:25;17.20;99.90
12315;DHT22;23886;46.614;14.276;2022-10-18T15:58:54;17.00;99.90
12315;DHT22;23886;46.614;14.276;2022-10-18T16:01:25;16.90;99.90
12315;DHT22;23886;46.614;14.276;2022-10-18T16:03:54;16.70;99.90
12315;DHT22;23886;46.614;14.276;2022-10-18T16:06:21;16.50;99.90
12315;DHT22;23886;46.614;14.276;2022-10-18T16:08:49;16.40;99.90